Terminal Aerodrome Forecast
Issued by NWS

Home | Current Version | Previous Version | Text Only | Print | Product List | Glossary On
Versions: 1 2 3 4 5 6 7 8 9 10 11 12 13 14 15 16
000
FTUS43 KOAX 290607 AAA
TAFBFF
TAF AMD
KBFF 290607Z 2906/3006 01008KT P6SM BKN050
      TEMPO 2906/2910 2SM -SN OVC015
     FM291000 02010KT 2SM -SN BR OVC015
     FM291800 02012KT 1/2SM SN OVC015
     FM300000 03010KT 2SM -SN BR OVC015=

USA.gov is the U.S. government's official web portal to all federal, state and local government web resources and services.